createdAt,value
2022-10-05T00:01:53.126Z,16.73
2022-10-05T00:04:22.833Z,16.75
2022-10-05T00:07:15.362Z,16.76
2022-10-05T00:09:43.962Z,16.78
2022-10-05T00:12:19.001Z,16.68
2022-10-05T00:14:49.808Z,16.63
2022-10-05T00:17:20.237Z,16.65
2022-10-05T00:19:52.060Z,16.79
2022-10-05T00:22:21.655Z,16.79
2022-10-05T00:24:55.468Z,16.79
2022-10-05T00:27:31.338Z,16.76
2022-10-05T00:30:01.163Z,16.79
2022-10-05T00:32:27.634Z,16.79
2022-10-05T00:34:54.258Z,16.71
2022-10-05T00:37:20.880Z,16.68
2022-10-05T00:39:47.337Z,16.76
2022-10-05T00:42:41.730Z,16.79
2022-10-05T00:45:33.402Z,16.76
2022-10-05T00:48:02.859Z,16.79
2022-10-05T00:50:59.842Z,16.66
2022-10-05T00:53:29.382Z,16.80
2022-10-05T00:56:20.346Z,16.78
2022-10-05T00:59:10.386Z,16.75
2022-10-05T01:01:43.161Z,16.78
2022-10-05T01:04:21.243Z,16.63
2022-10-05T01:07:02.980Z,16.78
2022-10-05T01:09:44.809Z,16.69
2022-10-05T01:12:19.910Z,16.80
2022-10-05T01:14:57.329Z,16.81
2022-10-05T01:17:37.360Z,16.80
2022-10-05T01:20:27.158Z,16.80
2022-10-05T01:23:15.505Z,16.80
2022-10-05T01:26:15.963Z,16.77
2022-10-05T01:29:30.787Z,16.71
2022-10-05T01:32:05.006Z,16.69
2022-10-05T01:34:34.520Z,16.71
2022-10-05T01:37:04.873Z,16.71
2022-10-05T01:39:37.495Z,16.68
2022-10-05T01:42:17.124Z,16.59
2022-10-05T01:44:49.108Z,16.59
2022-10-05T01:47:45.307Z,16.66
2022-10-05T01:50:23.227Z,16.74
2022-10-05T01:53:14.430Z,16.72
2022-10-05T01:55:59.741Z,16.75
2022-10-05T01:58:35.791Z,16.62
2022-10-05T02:01:35.891Z,16.74
2022-10-05T02:04:42.631Z,16.75
2022-10-05T02:07:14.674Z,16.72
2022-10-05T02:09:52.363Z,16.69
2022-10-05T02:12:23.567Z,16.77
2022-10-05T02:14:55.357Z,16.77
2022-10-05T02:17:38.672Z,16.76
2022-10-05T02:20:10.231Z,16.63
2022-10-05T02:22:45.017Z,16.80
2022-10-05T02:25:15.801Z,16.79
2022-10-05T02:27:52.233Z,16.75
2022-10-05T02:30:19.569Z,16.78
2022-10-05T02:32:56.069Z,16.84
2022-10-05T02:35:22.886Z,16.85
2022-10-05T02:37:57.398Z,16.84
2022-10-05T02:40:42.793Z,16.84
2022-10-05T02:43:21.483Z,16.85
2022-10-05T02:46:01.124Z,16.85
2022-10-05T02:48:43.234Z,16.86
2022-10-05T02:51:21.001Z,16.84
2022-10-05T02:54:03.460Z,16.83
2022-10-05T02:56:41.046Z,16.79
2022-10-05T02:59:16.538Z,16.81
2022-10-05T03:01:50.447Z,16.79
2022-10-05T03:04:20.070Z,16.78
2022-10-05T03:06:55.950Z,16.54
2022-10-05T03:09:28.382Z,16.72
2022-10-05T03:12:12.504Z,16.60
2022-10-05T03:14:57.954Z,16.72
2022-10-05T03:17:47.573Z,16.69
2022-10-05T03:20:41.493Z,16.71
2022-10-05T03:23:24.125Z,16.70
2022-10-05T03:26:17.088Z,16.68
2022-10-05T03:29:02.003Z,16.66
2022-10-05T03:31:37.573Z,16.68
2022-10-05T03:34:15.373Z,16.70
2022-10-05T03:37:10.113Z,16.71
2022-10-05T03:39:45.005Z,16.64
2022-10-05T03:42:24.443Z,16.70
2022-10-05T03:45:02.244Z,16.73
2022-10-05T03:47:34.770Z,16.73
2022-10-05T03:50:13.840Z,16.72
2022-10-05T03:52:55.072Z,16.71
2022-10-05T03:55:29.502Z,16.75
2022-10-05T03:58:00.524Z,16.76
2022-10-05T04:00:30.089Z,16.77
2022-10-05T04:03:15.918Z,16.67
2022-10-05T04:05:59.265Z,16.71
2022-10-05T04:09:00.809Z,16.78
2022-10-05T04:11:42.696Z,16.56
2022-10-05T04:14:30.976Z,16.79
2022-10-05T04:17:18.147Z,16.77
2022-10-05T04:20:01.827Z,16.80
2022-10-05T04:22:35.191Z,16.67
2022-10-05T04:25:14.995Z,16.77
2022-10-05T04:27:50.981Z,16.79
2022-10-05T04:30:22.237Z,16.79
2022-10-05T04:32:59.980Z,16.80
2022-10-05T04:35:41.757Z,16.82
2022-10-05T04:38:29.461Z,16.80
2022-10-05T04:41:28.381Z,16.80
2022-10-05T04:44:13.050Z,16.79
2022-10-05T04:47:19.488Z,16.77
2022-10-05T04:50:04.685Z,16.74
2022-10-05T04:53:10.322Z,16.77
2022-10-05T04:56:07.507Z,16.77
2022-10-05T04:58:51.705Z,16.70
2022-10-05T05:01:49.103Z,16.73
2022-10-05T05:04:24.853Z,16.75
2022-10-05T05:07:21.050Z,16.72
2022-10-05T05:10:18.588Z,16.72
2022-10-05T05:12:48.031Z,16.73
2022-10-05T05:15:33.306Z,16.71
2022-10-05T05:18:42.975Z,16.67
2022-10-05T05:21:43.157Z,16.67
2022-10-05T05:24:38.882Z,16.65
2022-10-05T05:27:20.706Z,16.64
2022-10-05T05:29:52.983Z,16.61
2022-10-05T05:32:53.683Z,16.58
2022-10-05T05:35:45.138Z,16.57
2022-10-05T05:38:23.737Z,16.57
2022-10-05T05:40:53.167Z,16.57
2022-10-05T05:43:26.749Z,16.49
2022-10-05T05:46:51.227Z,16.44
2022-10-05T05:49:21.865Z,16.49
2022-10-05T05:52:04.586Z,16.46
2022-10-05T05:54:38.368Z,16.45
2022-10-05T05:57:17.559Z,16.48
2022-10-05T06:00:08.144Z,16.47
2022-10-05T06:02:46.201Z,16.45
2022-10-05T06:05:30.958Z,16.44
2022-10-05T06:08:03.222Z,16.44
2022-10-05T06:10:38.344Z,16.46
2022-10-05T06:13:32.665Z,16.41
2022-10-05T06:16:09.501Z,16.46
2022-10-05T06:18:39.852Z,16.29
2022-10-05T06:21:21.958Z,16.47
2022-10-05T06:24:05.060Z,16.43
2022-10-05T06:26:39.466Z,16.41
2022-10-05T06:29:12.477Z,16.48
2022-10-05T06:31:59.096Z,16.36
2022-10-05T06:34:50.392Z,16.49
2022-10-05T06:37:50.163Z,16.52
2022-10-05T06:40:47.546Z,16.38
2022-10-05T06:43:32.957Z,16.54
2022-10-05T06:46:31.385Z,16.52
2022-10-05T06:49:16.356Z,16.53
2022-10-05T06:52:04.436Z,16.55
2022-10-05T06:54:51.785Z,16.58
2022-10-05T06:57:43.396Z,16.58
2022-10-05T07:00:27.952Z,16.61
2022-10-05T07:02:57.403Z,16.65
2022-10-05T07:05:52.538Z,16.66
2022-10-05T07:08:46.838Z,16.70
2022-10-05T07:11:16.324Z,16.73
2022-10-05T07:13:52.281Z,16.77
2022-10-05T07:16:33.984Z,16.80
2022-10-05T07:19:18.955Z,16.83
2022-10-05T07:22:00.647Z,16.72
2022-10-05T07:24:54.082Z,16.91
2022-10-05T07:27:31.990Z,16.89
2022-10-05T07:30:12.382Z,16.93
2022-10-05T07:33:05.382Z,17.00
2022-10-05T07:35:59.871Z,17.03
2022-10-05T07:38:48.010Z,17.05
2022-10-05T07:41:24.445Z,17.06
2022-10-05T07:44:17.203Z,17.09
2022-10-05T07:46:55.428Z,17.11
2022-10-05T07:49:59.848Z,17.16
2022-10-05T07:52:48.756Z,17.17
2022-10-05T07:55:21.577Z,17.26
2022-10-05T07:58:13.293Z,17.28
2022-10-05T08:00:53.039Z,17.20
2022-10-05T08:03:41.196Z,17.33
2022-10-05T08:06:15.399Z,17.33
2022-10-05T08:08:57.501Z,17.35
2022-10-05T08:11:33.761Z,17.39
2022-10-05T08:14:12.250Z,17.43
2022-10-05T08:16:38.931Z,17.49
2022-10-05T08:19:15.210Z,17.57
2022-10-05T08:21:47.170Z,17.57
2022-10-05T08:24:22.901Z,17.72
2022-10-05T08:27:02.123Z,17.69
2022-10-05T08:29:42.256Z,17.80
2022-10-05T08:32:22.697Z,17.76
2022-10-05T08:34:52.184Z,17.86
2022-10-05T08:37:27.459Z,17.86
2022-10-05T08:40:30.085Z,17.91
2022-10-05T08:43:05.694Z,17.97
2022-10-05T08:46:00.602Z,17.99
2022-10-05T08:48:30.107Z,17.96
2022-10-05T08:51:16.533Z,17.77
2022-10-05T08:53:55.165Z,17.97
2022-10-05T08:56:28.965Z,18.00
2022-10-05T08:59:14.055Z,18.01
2022-10-05T09:02:01.072Z,17.99
2022-10-05T09:04:42.827Z,17.98
2022-10-05T09:07:24.532Z,17.98
2022-10-05T09:10:12.953Z,17.80
2022-10-05T09:12:58.560Z,17.96
2022-10-05T09:15:49.636Z,17.96
2022-10-05T09:18:40.856Z,17.95
2022-10-05T09:21:31.944Z,17.85
2022-10-05T09:24:01.419Z,17.96
2022-10-05T09:26:58.690Z,18.01
2022-10-05T09:29:49.999Z,18.08
2022-10-05T09:32:27.969Z,18.23
2022-10-05T09:35:09.613Z,18.36
2022-10-05T09:37:48.321Z,18.48
2022-10-05T09:40:55.157Z,18.64
2022-10-05T09:43:49.308Z,18.72
2022-10-05T09:46:31.368Z,18.79
2022-10-05T09:49:10.964Z,18.71
2022-10-05T09:51:59.888Z,19.02
2022-10-05T09:54:28.897Z,19.16
2022-10-05T09:57:21.711Z,19.13
2022-10-05T10:00:28.174Z,19.39
2022-10-05T10:03:24.991Z,19.43
2022-10-05T10:06:24.912Z,19.54
2022-10-05T10:09:17.871Z,19.50
2022-10-05T10:12:13.335Z,19.49
2022-10-05T10:14:51.775Z,19.46
2022-10-05T10:17:44.227Z,19.37
2022-10-05T10:20:33.848Z,19.35
2022-10-05T10:23:35.979Z,19.28
2022-10-05T10:26:19.364Z,19.26
2022-10-05T10:29:24.443Z,19.20
2022-10-05T10:32:17.591Z,19.23
2022-10-05T10:35:19.333Z,19.22
2022-10-05T10:38:28.636Z,19.19
2022-10-05T10:41:24.668Z,19.20
2022-10-05T10:44:16.321Z,19.22
2022-10-05T10:47:16.990Z,19.24
2022-10-05T10:50:02.141Z,19.31
2022-10-05T10:53:06.230Z,19.31
2022-10-05T10:55:54.628Z,19.33
2022-10-05T10:58:27.361Z,19.38
2022-10-05T11:01:09.137Z,19.37
2022-10-05T11:04:04.800Z,19.36
2022-10-05T11:06:37.463Z,19.32
2022-10-05T11:09:39.661Z,19.23
2022-10-05T11:12:34.708Z,19.10
2022-10-05T11:15:13.136Z,18.99
2022-10-05T11:18:01.390Z,18.96
2022-10-05T11:20:46.587Z,18.77
2022-10-05T11:23:39.026Z,18.88
2022-10-05T11:26:37.976Z,18.85
2022-10-05T11:29:23.034Z,18.84
2022-10-05T11:32:18.918Z,18.80
2022-10-05T11:35:10.779Z,18.58
2022-10-05T11:38:30.966Z,18.66
2022-10-05T11:41:34.714Z,18.58
2022-10-05T11:44:10.275Z,18.53
2022-10-05T11:46:40.583Z,18.50
2022-10-05T11:49:45.901Z,18.14
2022-10-05T11:52:23.877Z,18.25
2022-10-05T11:55:15.033Z,18.07
2022-10-05T11:57:56.036Z,17.97
2022-10-05T12:00:40.516Z,17.84
2022-10-05T12:03:44.974Z,17.57
2022-10-05T12:06:21.882Z,17.52
2022-10-05T12:09:13.448Z,17.42
2022-10-05T12:11:57.675Z,17.24
2022-10-05T12:14:27.558Z,17.21
2022-10-05T12:17:34.332Z,17.07
2022-10-05T12:20:14.820Z,17.01
2022-10-05T12:22:48.706Z,16.90
2022-10-05T12:25:36.535Z,16.89
2022-10-05T12:28:09.544Z,16.69
2022-10-05T12:31:21.472Z,16.78
2022-10-05T12:34:01.744Z,16.61
2022-10-05T12:36:46.221Z,16.74
2022-10-05T12:39:30.975Z,16.63
2022-10-05T12:42:06.925Z,16.70
2022-10-05T12:45:11.963Z,16.57
2022-10-05T12:48:00.089Z,16.76
2022-10-05T12:50:34.516Z,16.78
2022-10-05T12:53:15.125Z,16.85
2022-10-05T12:55:53.311Z,16.86
2022-10-05T12:58:41.365Z,16.93
2022-10-05T13:01:32.332Z,16.97
2022-10-05T13:04:19.066Z,17.01
2022-10-05T13:06:52.414Z,16.94
2022-10-05T13:09:32.103Z,16.98
2022-10-05T13:12:07.496Z,16.77
2022-10-05T13:14:53.795Z,17.09
2022-10-05T13:17:40.441Z,17.12
2022-10-05T13:20:29.270Z,17.14
2022-10-05T13:23:04.250Z,17.10
2022-10-05T13:25:43.061Z,17.09
2022-10-05T13:28:28.915Z,16.74
2022-10-05T13:31:23.076Z,16.60
2022-10-05T13:34:21.684Z,16.33
2022-10-05T13:37:17.407Z,16.22
2022-10-05T13:40:10.422Z,16.10
2022-10-05T13:43:02.058Z,16.00
2022-10-05T13:45:55.796Z,15.94
2022-10-05T13:48:55.295Z,15.23
2022-10-05T13:51:25.917Z,15.45
2022-10-05T13:54:15.328Z,15.55
2022-10-05T13:57:13.761Z,15.43
2022-10-05T13:59:49.906Z,15.37
2022-10-05T14:02:23.135Z,15.31
2022-10-05T14:04:57.677Z,15.58
2022-10-05T14:07:48.445Z,15.64
2022-10-05T14:10:39.627Z,15.49
2022-10-05T14:13:49.208Z,15.69
2022-10-05T14:16:21.828Z,15.75
2022-10-05T14:18:51.626Z,15.81
2022-10-05T14:21:24.765Z,15.66
2022-10-05T14:23:52.114Z,15.69
2022-10-05T14:26:35.397Z,16.06
2022-10-05T14:29:14.456Z,16.15
2022-10-05T14:32:17.219Z,16.01
2022-10-05T14:34:55.178Z,15.75
2022-10-05T14:37:25.261Z,16.34
2022-10-05T14:39:57.501Z,16.19
2022-10-05T14:42:28.390Z,16.31
2022-10-05T14:45:14.081Z,16.34
2022-10-05T14:48:00.608Z,16.39
2022-10-05T14:50:31.640Z,16.14
2022-10-05T14:53:04.340Z,16.38
2022-10-05T14:55:47.030Z,16.28
2022-10-05T14:58:25.624Z,16.18
2022-10-05T15:01:14.051Z,16.16
2022-10-05T15:03:59.606Z,16.14
2022-10-05T15:06:42.417Z,16.13
2022-10-05T15:09:30.947Z,15.75
2022-10-05T15:12:00.960Z,15.76
2022-10-05T15:14:34.072Z,15.69
2022-10-05T15:17:20.322Z,15.57
2022-10-05T15:20:05.180Z,15.68
2022-10-05T15:22:46.427Z,15.28
2022-10-05T15:25:17.152Z,15.29
2022-10-05T15:28:11.022Z,15.38
2022-10-05T15:30:42.714Z,15.15
2022-10-05T15:33:31.450Z,15.21
2022-10-05T15:36:14.263Z,15.04
2022-10-05T15:39:06.373Z,14.80
2022-10-05T15:41:35.630Z,15.00
2022-10-05T15:44:19.954Z,14.72
2022-10-05T15:46:58.209Z,14.69
2022-10-05T15:49:37.711Z,14.63
2022-10-05T15:52:13.078Z,14.89
2022-10-05T15:54:54.958Z,14.88
2022-10-05T15:57:33.975Z,14.87
2022-10-05T16:00:14.895Z,14.70
2022-10-05T16:02:53.520Z,14.90
2022-10-05T16:05:48.002Z,14.90
2022-10-05T16:08:53.053Z,14.87
2022-10-05T16:11:37.797Z,14.87
2022-10-05T16:14:33.137Z,14.81
2022-10-05T16:16:59.641Z,14.87
2022-10-05T16:19:31.897Z,14.87
2022-10-05T16:22:43.371Z,14.63
2022-10-05T16:25:32.051Z,14.78
2022-10-05T16:28:29.141Z,14.74
2022-10-05T16:31:06.753Z,14.71
2022-10-05T16:33:54.753Z,14.66
2022-10-05T16:36:32.063Z,14.62
2022-10-05T16:39:07.206Z,14.49
2022-10-05T16:41:44.201Z,14.46
2022-10-05T16:44:22.977Z,14.34
2022-10-05T16:46:57.750Z,14.17
2022-10-05T16:49:42.999Z,14.34
2022-10-05T16:52:18.891Z,14.23
2022-10-05T16:54:51.460Z,14.19
2022-10-05T16:57:23.735Z,14.23
2022-10-05T17:00:17.478Z,14.17
2022-10-05T17:03:10.242Z,14.10
2022-10-05T17:06:07.726Z,14.09
2022-10-05T17:08:46.609Z,14.09
2022-10-05T17:11:31.455Z,14.02
2022-10-05T17:14:22.629Z,13.81
2022-10-05T17:17:20.700Z,13.79
2022-10-05T17:20:18.165Z,13.80
2022-10-05T17:23:41.160Z,13.72
2022-10-05T17:26:33.700Z,13.67
2022-10-05T17:29:16.451Z,13.58
2022-10-05T17:32:21.564Z,13.52
2022-10-05T17:35:02.892Z,13.31
2022-10-05T17:37:37.925Z,13.41
2022-10-05T17:40:28.529Z,13.35
2022-10-05T17:43:01.151Z,13.11
2022-10-05T17:45:33.729Z,13.25
2022-10-05T17:48:03.706Z,13.20
2022-10-05T17:51:06.452Z,13.17
2022-10-05T17:54:05.460Z,12.88
2022-10-05T17:56:47.107Z,12.76
2022-10-05T17:59:45.405Z,13.04
2022-10-05T18:02:40.834Z,13.04
2022-10-05T18:05:14.533Z,13.05
2022-10-05T18:08:07.607Z,12.98
2022-10-05T18:10:37.847Z,12.95
2022-10-05T18:13:35.760Z,12.97
2022-10-05T18:16:02.475Z,12.85
2022-10-05T18:18:34.169Z,12.87
2022-10-05T18:21:17.780Z,12.84
2022-10-05T18:24:01.612Z,12.80
2022-10-05T18:26:34.024Z,12.76
2022-10-05T18:29:39.384Z,12.73
2022-10-05T18:32:47.263Z,12.64
2022-10-05T18:35:25.999Z,12.64
2022-10-05T18:38:04.774Z,12.65
2022-10-05T18:40:49.945Z,12.66
2022-10-05T18:43:52.900Z,12.47
2022-10-05T18:46:37.775Z,12.66
2022-10-05T18:49:39.666Z,12.57
2022-10-05T18:52:09.343Z,12.55
2022-10-05T18:54:54.943Z,12.47
2022-10-05T18:57:50.111Z,12.40
2022-10-05T19:00:20.791Z,12.31
2022-10-05T19:02:52.766Z,12.20
2022-10-05T19:05:46.462Z,12.19
2022-10-05T19:08:29.606Z,12.14
2022-10-05T19:11:24.389Z,12.10
2022-10-05T19:13:56.431Z,12.08
2022-10-05T19:16:47.320Z,12.04
2022-10-05T19:19:38.598Z,12.00
2022-10-05T19:22:26.333Z,11.84
2022-10-05T19:25:20.935Z,11.91
2022-10-05T19:28:21.631Z,11.66
2022-10-05T19:30:59.306Z,11.82
2022-10-05T19:33:47.246Z,11.77
2022-10-05T19:36:37.886Z,11.58
2022-10-05T19:39:12.071Z,11.72
2022-10-05T19:41:50.607Z,11.69
2022-10-05T19:44:28.893Z,11.69
2022-10-05T19:47:14.843Z,11.64
2022-10-05T19:49:54.276Z,11.61
2022-10-05T19:52:31.711Z,11.59
2022-10-05T19:55:11.058Z,11.61
2022-10-05T19:57:52.446Z,11.56
2022-10-05T20:00:31.359Z,11.58
2022-10-05T20:03:19.236Z,11.56
2022-10-05T20:05:46.060Z,11.35
2022-10-05T20:08:18.300Z,11.45
2022-10-05T20:10:46.489Z,11.31
2022-10-05T20:13:22.190Z,11.41
2022-10-05T20:16:39.822Z,11.38
2022-10-05T20:19:46.190Z,11.37
2022-10-05T20:22:39.598Z,11.33
2022-10-05T20:25:30.406Z,11.30
2022-10-05T20:27:57.479Z,11.27
2022-10-05T20:30:27.487Z,11.24
2022-10-05T20:33:09.189Z,11.26
2022-10-05T20:35:35.684Z,11.26
2022-10-05T20:38:02.402Z,11.19
2022-10-05T20:40:29.887Z,11.06
2022-10-05T20:42:57.681Z,11.12
2022-10-05T20:45:24.355Z,11.22
2022-10-05T20:47:51.017Z,11.26
2022-10-05T20:50:17.995Z,11.10
2022-10-05T20:52:44.604Z,11.23
2022-10-05T20:55:12.357Z,11.13
2022-10-05T20:57:42.086Z,11.21
2022-10-05T21:00:10.293Z,11.19
2022-10-05T21:02:37.219Z,11.19
2022-10-05T21:05:04.547Z,11.16
2022-10-05T21:07:31.288Z,11.09
2022-10-05T21:10:01.096Z,11.14
2022-10-05T21:12:27.927Z,11.09
2022-10-05T21:14:54.487Z,11.07
2022-10-05T21:17:21.045Z,10.92
2022-10-05T21:19:47.819Z,11.11
2022-10-05T21:22:14.638Z,10.97
2022-10-05T21:24:41.234Z,11.00
2022-10-05T21:27:08.197Z,11.03
2022-10-05T21:29:36.381Z,11.00
2022-10-05T21:32:03.715Z,10.89
2022-10-05T21:34:30.285Z,10.97
2022-10-05T21:36:56.780Z,11.01
2022-10-05T21:39:24.679Z,10.84
2022-10-05T21:41:51.253Z,10.98
2022-10-05T21:44:18.283Z,10.99
2022-10-05T21:46:45.026Z,11.02
2022-10-05T21:49:13.341Z,10.99
2022-10-05T21:51:41.609Z,10.91
2022-10-05T21:54:17.440Z,10.98
2022-10-05T21:56:48.231Z,10.92
2022-10-05T21:59:19.211Z,10.96
2022-10-05T22:01:45.980Z,10.95
2022-10-05T22:04:12.511Z,10.95
2022-10-05T22:06:39.179Z,10.87
2022-10-05T22:09:05.735Z,10.93
2022-10-05T22:11:32.788Z,10.75
2022-10-05T22:14:02.700Z,10.91
2022-10-05T22:16:39.011Z,10.86
2022-10-05T22:19:10.587Z,10.90
2022-10-05T22:21:41.408Z,10.92
2022-10-05T22:24:09.179Z,10.89
2022-10-05T22:26:35.962Z,10.88
2022-10-05T22:29:03.474Z,10.91
2022-10-05T22:31:30.155Z,10.88
2022-10-05T22:33:56.761Z,10.85
2022-10-05T22:36:23.312Z,10.85
2022-10-05T22:38:49.945Z,10.80
2022-10-05T22:41:18.278Z,10.79
2022-10-05T22:43:48.558Z,10.73
2022-10-05T22:46:15.815Z,10.78
2022-10-05T22:48:43.245Z,10.75
2022-10-05T22:51:10.237Z,10.72
2022-10-05T22:53:36.751Z,10.76
2022-10-05T22:56:09.018Z,10.69
2022-10-05T22:58:36.325Z,10.62
2022-10-05T23:01:08.467Z,10.61
2022-10-05T23:03:35.529Z,10.58
2022-10-05T23:06:05.062Z,10.53
2022-10-05T23:08:33.156Z,10.51
2022-10-05T23:11:07.339Z,10.47
2022-10-05T23:13:33.877Z,10.40
2022-10-05T23:16:27.832Z,10.40
2022-10-05T23:18:55.366Z,10.37
2022-10-05T23:21:23.832Z,10.27
2022-10-05T23:23:53.636Z,10.16
2022-10-05T23:26:23.224Z,10.19
2022-10-05T23:28:50.219Z,10.10
2022-10-05T23:31:19.546Z,10.13
2022-10-05T23:33:46.221Z,10.07
2022-10-05T23:36:16.031Z,10.02
2022-10-05T23:38:43.042Z,10.04
2022-10-05T23:41:09.735Z,10.01
2022-10-05T23:43:36.904Z,9.96
2022-10-05T23:46:06.322Z,9.91
2022-10-05T23:48:33.536Z,9.88
2022-10-05T23:51:00.526Z,9.85
2022-10-05T23:53:27.013Z,9.78
2022-10-05T23:55:54.245Z,9.76
2022-10-05T23:58:21.606Z,9.71
